sensor_id;sensor_type;location;lat;lon;timestamp;P1;durP1;ratioP1;P2;durP2;ratioP2
9479;SDS011;4778;44.510;11.378;2024-02-04T00:01:43;409.30;;;299.70;;
9479;SDS011;4778;44.510;11.378;2024-02-04T00:04:09;380.70;;;287.90;;
9479;SDS011;4778;44.510;11.378;2024-02-04T00:06:35;381.80;;;289.60;;
9479;SDS011;4778;44.510;11.378;2024-02-04T00:09:01;393.00;;;296.40;;
9479;SDS011;4778;44.510;11.378;2024-02-04T00:11:29;378.10;;;289.20;;
9479;SDS011;4778;44.510;11.378;2024-02-04T00:13:55;375.40;;;285.00;;
9479;SDS011;4778;44.510;11.378;2024-02-04T00:16:21;384.20;;;290.20;;
9479;SDS011;4778;44.510;11.378;2024-02-04T00:18:47;387.85;;;294.25;;
9479;SDS011;4778;44.510;11.378;2024-02-04T00:21:13;383.75;;;291.15;;
9479;SDS011;4778;44.510;11.378;2024-02-04T00:23:39;374.05;;;287.70;;
9479;SDS011;4778;44.510;11.378;2024-02-04T00:26:06;375.50;;;288.75;;
9479;SDS011;4778;44.510;11.378;2024-02-04T00:28:32;379.50;;;292.70;;
9479;SDS011;4778;44.510;11.378;2024-02-04T00:30:58;372.77;;;289.93;;
9479;SDS011;4778;44.510;11.378;2024-02-04T00:33:24;365.50;;;284.00;;
9479;SDS011;4778;44.510;11.378;2024-02-04T00:35:50;369.20;;;288.60;;
9479;SDS011;4778;44.510;11.378;2024-02-04T00:38:17;364.25;;;283.95;;
9479;SDS011;4778;44.510;11.378;2024-02-04T00:40:43;370.30;;;287.50;;
9479;SDS011;4778;44.510;11.378;2024-02-04T00:43:09;362.80;;;285.90;;
9479;SDS011;4778;44.510;11.378;2024-02-04T00:45:35;356.77;;;283.20;;
9479;SDS011;4778;44.510;11.378;2024-02-04T00:48:01;355.85;;;283.00;;
9479;SDS011;4778;44.510;11.378;2024-02-04T00:50:27;361.50;;;286.33;;
9479;SDS011;4778;44.510;11.378;2024-02-04T00:52:54;360.90;;;284.35;;
9479;SDS011;4778;44.510;11.378;2024-02-04T00:55:20;367.20;;;284.25;;
9479;SDS011;4778;44.510;11.378;2024-02-04T00:57:46;364.05;;;283.40;;
9479;SDS011;4778;44.510;11.378;2024-02-04T01:00:12;363.25;;;285.80;;
9479;SDS011;4778;44.510;11.378;2024-02-04T01:02:39;366.97;;;291.47;;
9479;SDS011;4778;44.510;11.378;2024-02-04T01:05:05;353.10;;;295.70;;
9479;SDS011;4778;44.510;11.378;2024-02-04T01:07:31;342.00;;;293.15;;
9479;SDS011;4778;44.510;11.378;2024-02-04T01:09:57;330.40;;;280.30;;
9479;SDS011;4778;44.510;11.378;2024-02-04T01:12:23;320.75;;;278.20;;
9479;SDS011;4778;44.510;11.378;2024-02-04T01:14:50;322.15;;;280.45;;
9479;SDS011;4778;44.510;11.378;2024-02-04T01:17:16;333.37;;;290.47;;
9479;SDS011;4778;44.510;11.378;2024-02-04T01:19:42;334.60;;;283.60;;
9479;SDS011;4778;44.510;11.378;2024-02-04T01:22:08;350.75;;;289.67;;
9479;SDS011;4778;44.510;11.378;2024-02-04T01:24:34;365.10;;;300.70;;
9479;SDS011;4778;44.510;11.378;2024-02-04T01:27:00;339.45;;;290.27;;
9479;SDS011;4778;44.510;11.378;2024-02-04T01:29:26;362.70;;;294.10;;
9479;SDS011;4778;44.510;11.378;2024-02-04T01:31:52;364.52;;;300.80;;
9479;SDS011;4778;44.510;11.378;2024-02-04T01:34:19;355.43;;;293.67;;
9479;SDS011;4778;44.510;11.378;2024-02-04T01:36:45;357.70;;;293.30;;
9479;SDS011;4778;44.510;11.378;2024-02-04T01:39:11;362.80;;;299.00;;
9479;SDS011;4778;44.510;11.378;2024-02-04T01:41:37;348.35;;;290.85;;
9479;SDS011;4778;44.510;11.378;2024-02-04T01:44:04;349.17;;;290.95;;
9479;SDS011;4778;44.510;11.378;2024-02-04T01:46:31;346.40;;;287.65;;
9479;SDS011;4778;44.510;11.378;2024-02-04T01:48:57;331.00;;;287.30;;
9479;SDS011;4778;44.510;11.378;2024-02-04T01:51:23;336.02;;;288.08;;
9479;SDS011;4778;44.510;11.378;2024-02-04T01:53:49;329.63;;;287.87;;
9479;SDS011;4778;44.510;11.378;2024-02-04T01:56:16;360.85;;;298.25;;
9479;SDS011;4778;44.510;11.378;2024-02-04T01:58:42;349.10;;;289.95;;
9479;SDS011;4778;44.510;11.378;2024-02-04T02:01:09;346.60;;;287.30;;
9479;SDS011;4778;44.510;11.378;2024-02-04T02:03:35;346.30;;;285.85;;
9479;SDS011;4778;44.510;11.378;2024-02-04T02:06:01;332.25;;;269.08;;
9479;SDS011;4778;44.510;11.378;2024-02-04T02:08:28;346.55;;;282.75;;
9479;SDS011;4778;44.510;11.378;2024-02-04T02:10:57;345.47;;;280.37;;
9479;SDS011;4778;44.510;11.378;2024-02-04T02:13:27;355.65;;;290.90;;
9479;SDS011;4778;44.510;11.378;2024-02-04T02:15:56;365.05;;;299.35;;
9479;SDS011;4778;44.510;11.378;2024-02-04T02:18:29;338.33;;;290.10;;
9479;SDS011;4778;44.510;11.378;2024-02-04T02:23:30;348.70;;;296.35;;
9479;SDS011;4778;44.510;11.378;2024-02-04T02:25:56;355.05;;;293.65;;
9479;SDS011;4778;44.510;11.378;2024-02-04T02:28:23;355.00;;;296.90;;
9479;SDS011;4778;44.510;11.378;2024-02-04T02:30:49;367.58;;;296.83;;
9479;SDS011;4778;44.510;11.378;2024-02-04T02:33:15;371.23;;;299.70;;
9479;SDS011;4778;44.510;11.378;2024-02-04T02:35:42;349.05;;;295.70;;
9479;SDS011;4778;44.510;11.378;2024-02-04T02:38:20;342.13;;;287.97;;
9479;SDS011;4778;44.510;11.378;2024-02-04T02:40:51;369.90;;;292.70;;
9479;SDS011;4778;44.510;11.378;2024-02-04T02:43:18;361.60;;;286.20;;
9479;SDS011;4778;44.510;11.378;2024-02-04T02:45:45;367.00;;;288.97;;
9479;SDS011;4778;44.510;11.378;2024-02-04T02:48:11;383.90;;;295.50;;
9479;SDS011;4778;44.510;11.378;2024-02-04T02:50:38;418.20;;;302.80;;
9479;SDS011;4778;44.510;11.378;2024-02-04T02:53:04;415.40;;;304.10;;
9479;SDS011;4778;44.510;11.378;2024-02-04T02:55:31;375.17;;;290.07;;
9479;SDS011;4778;44.510;11.378;2024-02-04T02:57:57;361.65;;;284.95;;
9479;SDS011;4778;44.510;11.378;2024-02-04T03:00:23;358.20;;;283.90;;
9479;SDS011;4778;44.510;11.378;2024-02-04T03:02:49;371.20;;;287.40;;
9479;SDS011;4778;44.510;11.378;2024-02-04T03:05:15;360.05;;;286.98;;
9479;SDS011;4778;44.510;11.378;2024-02-04T03:07:42;374.03;;;292.50;;
9479;SDS011;4778;44.510;11.378;2024-02-04T03:10:08;357.88;;;287.00;;
9479;SDS011;4778;44.510;11.378;2024-02-04T03:12:34;356.65;;;287.30;;
9479;SDS011;4778;44.510;11.378;2024-02-04T03:15:00;359.20;;;286.30;;
9479;SDS011;4778;44.510;11.378;2024-02-04T03:17:27;355.80;;;285.30;;
9479;SDS011;4778;44.510;11.378;2024-02-04T03:19:53;373.25;;;288.80;;
9479;SDS011;4778;44.510;11.378;2024-02-04T03:22:22;354.47;;;282.20;;
9479;SDS011;4778;44.510;11.378;2024-02-04T03:24:48;349.45;;;284.58;;
9479;SDS011;4778;44.510;11.378;2024-02-04T03:27:16;365.23;;;287.77;;
9479;SDS011;4778;44.510;11.378;2024-02-04T03:29:42;363.98;;;288.33;;
9479;SDS011;4778;44.510;11.378;2024-02-04T03:32:08;348.57;;;288.47;;
9479;SDS011;4778;44.510;11.378;2024-02-04T03:34:34;351.60;;;296.50;;
9479;SDS011;4778;44.510;11.378;2024-02-04T03:37:00;347.25;;;286.60;;
9479;SDS011;4778;44.510;11.378;2024-02-04T03:39:27;344.10;;;281.08;;
9479;SDS011;4778;44.510;11.378;2024-02-04T03:41:53;349.90;;;291.60;;
9479;SDS011;4778;44.510;11.378;2024-02-04T03:44:19;342.75;;;282.98;;
9479;SDS011;4778;44.510;11.378;2024-02-04T03:46:48;345.65;;;284.23;;
9479;SDS011;4778;44.510;11.378;2024-02-04T03:49:15;349.25;;;289.85;;
9479;SDS011;4778;44.510;11.378;2024-02-04T03:51:41;337.20;;;279.50;;
9479;SDS011;4778;44.510;11.378;2024-02-04T03:54:07;336.45;;;277.45;;
9479;SDS011;4778;44.510;11.378;2024-02-04T03:56:33;345.98;;;285.17;;
9479;SDS011;4778;44.510;11.378;2024-02-04T03:58:59;343.20;;;281.42;;
9479;SDS011;4778;44.510;11.378;2024-02-04T04:01:26;339.07;;;281.93;;
9479;SDS011;4778;44.510;11.378;2024-02-04T04:03:52;332.05;;;285.25;;
9479;SDS011;4778;44.510;11.378;2024-02-04T04:06:18;339.60;;;285.15;;
9479;SDS011;4778;44.510;11.378;2024-02-04T04:08:44;339.30;;;284.90;;
9479;SDS011;4778;44.510;11.378;2024-02-04T04:11:10;343.60;;;286.90;;
9479;SDS011;4778;44.510;11.378;2024-02-04T04:13:36;341.92;;;284.77;;
9479;SDS011;4778;44.510;11.378;2024-02-04T04:16:03;373.35;;;291.10;;
9479;SDS011;4778;44.510;11.378;2024-02-04T04:18:30;375.70;;;292.20;;
9479;SDS011;4778;44.510;11.378;2024-02-04T04:20:56;383.95;;;296.45;;
9479;SDS011;4778;44.510;11.378;2024-02-04T04:23:22;382.03;;;296.73;;
9479;SDS011;4778;44.510;11.378;2024-02-04T04:25:48;369.70;;;285.50;;
9479;SDS011;4778;44.510;11.378;2024-02-04T04:28:14;363.15;;;284.15;;
9479;SDS011;4778;44.510;11.378;2024-02-04T04:30:40;367.83;;;287.83;;
9479;SDS011;4778;44.510;11.378;2024-02-04T04:33:06;375.50;;;291.80;;
9479;SDS011;4778;44.510;11.378;2024-02-04T04:35:33;380.90;;;295.30;;
9479;SDS011;4778;44.510;11.378;2024-02-04T04:37:59;379.20;;;289.10;;
9479;SDS011;4778;44.510;11.378;2024-02-04T04:40:26;390.30;;;293.60;;
9479;SDS011;4778;44.510;11.378;2024-02-04T04:42:52;375.20;;;287.87;;
9479;SDS011;4778;44.510;11.378;2024-02-04T04:45:18;378.00;;;291.50;;
9479;SDS011;4778;44.510;11.378;2024-02-04T04:47:46;365.80;;;288.70;;
9479;SDS011;4778;44.510;11.378;2024-02-04T04:50:12;356.50;;;279.80;;
9479;SDS011;4778;44.510;11.378;2024-02-04T04:52:38;367.00;;;289.23;;
9479;SDS011;4778;44.510;11.378;2024-02-04T04:55:05;371.20;;;293.95;;
9479;SDS011;4778;44.510;11.378;2024-02-04T04:57:31;377.60;;;295.50;;
9479;SDS011;4778;44.510;11.378;2024-02-04T04:59:57;362.73;;;288.77;;
9479;SDS011;4778;44.510;11.378;2024-02-04T05:02:25;366.73;;;288.75;;
9479;SDS011;4778;44.510;11.378;2024-02-04T05:04:51;369.40;;;292.90;;
9479;SDS011;4778;44.510;11.378;2024-02-04T05:07:18;366.85;;;294.15;;
9479;SDS011;4778;44.510;11.378;2024-02-04T05:09:44;364.80;;;292.80;;
9479;SDS011;4778;44.510;11.378;2024-02-04T05:12:11;360.95;;;286.40;;
9479;SDS011;4778;44.510;11.378;2024-02-04T05:14:37;360.30;;;292.90;;
9479;SDS011;4778;44.510;11.378;2024-02-04T05:17:04;342.53;;;273.90;;
9479;SDS011;4778;44.510;11.378;2024-02-04T05:19:30;360.70;;;291.92;;
9479;SDS011;4778;44.510;11.378;2024-02-04T05:21:56;351.40;;;283.83;;
9479;SDS011;4778;44.510;11.378;2024-02-04T05:24:23;349.70;;;284.03;;
9479;SDS011;4778;44.510;11.378;2024-02-04T05:26:49;356.50;;;285.90;;
9479;SDS011;4778;44.510;11.378;2024-02-04T05:29:15;354.60;;;288.43;;
9479;SDS011;4778;44.510;11.378;2024-02-04T05:31:44;357.77;;;286.27;;
9479;SDS011;4778;44.510;11.378;2024-02-04T05:34:10;333.05;;;281.15;;
9479;SDS011;4778;44.510;11.378;2024-02-04T05:36:36;338.40;;;275.80;;
9479;SDS011;4778;44.510;11.378;2024-02-04T05:39:12;361.30;;;290.10;;
9479;SDS011;4778;44.510;11.378;2024-02-04T05:41:39;366.30;;;286.70;;
9479;SDS011;4778;44.510;11.378;2024-02-04T05:44:05;391.70;;;296.70;;
9479;SDS011;4778;44.510;11.378;2024-02-04T05:46:34;342.00;;;277.75;;
9479;SDS011;4778;44.510;11.378;2024-02-04T05:49:00;391.70;;;297.10;;
9479;SDS011;4778;44.510;11.378;2024-02-04T05:51:26;385.10;;;292.53;;
9479;SDS011;4778;44.510;11.378;2024-02-04T05:53:52;381.55;;;294.95;;
9479;SDS011;4778;44.510;11.378;2024-02-04T05:56:19;388.30;;;297.90;;
9479;SDS011;4778;44.510;11.378;2024-02-04T05:58:45;367.40;;;293.50;;
9479;SDS011;4778;44.510;11.378;2024-02-04T06:01:11;373.95;;;294.20;;
9479;SDS011;4778;44.510;11.378;2024-02-04T06:03:38;366.80;;;296.20;;
9479;SDS011;4778;44.510;11.378;2024-02-04T06:06:04;378.20;;;297.90;;
9479;SDS011;4778;44.510;11.378;2024-02-04T06:08:30;371.43;;;293.93;;
9479;SDS011;4778;44.510;11.378;2024-02-04T06:10:56;356.47;;;287.60;;
9479;SDS011;4778;44.510;11.378;2024-02-04T06:13:23;375.07;;;303.33;;
9479;SDS011;4778;44.510;11.378;2024-02-04T06:15:49;358.60;;;292.80;;
9479;SDS011;4778;44.510;11.378;2024-02-04T06:18:16;358.93;;;289.57;;
9479;SDS011;4778;44.510;11.378;2024-02-04T06:20:42;364.23;;;286.10;;
9479;SDS011;4778;44.510;11.378;2024-02-04T06:23:08;362.75;;;295.75;;
9479;SDS011;4778;44.510;11.378;2024-02-04T06:25:34;344.60;;;290.75;;
9479;SDS011;4778;44.510;11.378;2024-02-04T06:28:00;349.40;;;288.00;;
9479;SDS011;4778;44.510;11.378;2024-02-04T06:30:26;345.17;;;294.17;;
9479;SDS011;4778;44.510;11.378;2024-02-04T06:32:53;342.45;;;289.35;;
9479;SDS011;4778;44.510;11.378;2024-02-04T06:35:19;344.30;;;297.02;;
9479;SDS011;4778;44.510;11.378;2024-02-04T06:37:46;346.92;;;285.35;;
9479;SDS011;4778;44.510;11.378;2024-02-04T06:40:12;361.70;;;298.75;;
9479;SDS011;4778;44.510;11.378;2024-02-04T06:42:38;362.40;;;290.20;;
9479;SDS011;4778;44.510;11.378;2024-02-04T06:45:04;375.70;;;295.67;;
9479;SDS011;4778;44.510;11.378;2024-02-04T06:47:30;347.15;;;286.75;;
9479;SDS011;4778;44.510;11.378;2024-02-04T06:49:56;330.77;;;283.93;;
9479;SDS011;4778;44.510;11.378;2024-02-04T06:52:22;340.67;;;290.25;;
9479;SDS011;4778;44.510;11.378;2024-02-04T06:54:48;306.58;;;261.83;;
9479;SDS011;4778;44.510;11.378;2024-02-04T06:57:15;344.70;;;293.10;;
9479;SDS011;4778;44.510;11.378;2024-02-04T06:59:41;342.90;;;291.70;;
9479;SDS011;4778;44.510;11.378;2024-02-04T07:02:07;341.02;;;290.05;;
9479;SDS011;4778;44.510;11.378;2024-02-04T07:04:33;345.48;;;295.52;;
9479;SDS011;4778;44.510;11.378;2024-02-04T07:06:59;331.07;;;293.23;;
9479;SDS011;4778;44.510;11.378;2024-02-04T07:09:25;334.03;;;289.37;;
9479;SDS011;4778;44.510;11.378;2024-02-04T07:11:51;331.60;;;282.20;;
9479;SDS011;4778;44.510;11.378;2024-02-04T07:14:18;347.60;;;292.27;;
9479;SDS011;4778;44.510;11.378;2024-02-04T07:16:44;341.73;;;285.30;;
9479;SDS011;4778;44.510;11.378;2024-02-04T07:19:10;352.20;;;293.70;;
9479;SDS011;4778;44.510;11.378;2024-02-04T07:21:36;348.80;;;283.25;;
9479;SDS011;4778;44.510;11.378;2024-02-04T07:24:02;369.42;;;295.45;;
9479;SDS011;4778;44.510;11.378;2024-02-04T07:26:28;352.50;;;290.10;;
9479;SDS011;4778;44.510;11.378;2024-02-04T07:28:54;346.30;;;285.50;;
9479;SDS011;4778;44.510;11.378;2024-02-04T07:31:20;344.40;;;287.15;;
9479;SDS011;4778;44.510;11.378;2024-02-04T07:33:47;330.95;;;281.85;;
9479;SDS011;4778;44.510;11.378;2024-02-04T07:36:13;344.80;;;288.65;;
9479;SDS011;4778;44.510;11.378;2024-02-04T07:38:39;335.30;;;282.20;;
9479;SDS011;4778;44.510;11.378;2024-02-04T07:41:06;332.35;;;284.55;;
9479;SDS011;4778;44.510;11.378;2024-02-04T07:43:32;319.35;;;279.25;;
9479;SDS011;4778;44.510;11.378;2024-02-04T07:45:58;318.63;;;281.13;;
9479;SDS011;4778;44.510;11.378;2024-02-04T07:48:24;306.70;;;272.80;;
9479;SDS011;4778;44.510;11.378;2024-02-04T07:50:50;312.10;;;278.00;;
9479;SDS011;4778;44.510;11.378;2024-02-04T07:53:17;300.10;;;267.50;;
9479;SDS011;4778;44.510;11.378;2024-02-04T07:55:43;304.45;;;271.30;;
9479;SDS011;4778;44.510;11.378;2024-02-04T07:58:09;301.65;;;269.35;;
9479;SDS011;4778;44.510;11.378;2024-02-04T08:00:35;311.00;;;276.60;;
9479;SDS011;4778;44.510;11.378;2024-02-04T08:03:01;238.77;;;217.43;;
9479;SDS011;4778;44.510;11.378;2024-02-04T08:05:27;305.15;;;272.70;;
9479;SDS011;4778;44.510;11.378;2024-02-04T08:07:53;228.80;;;209.15;;
9479;SDS011;4778;44.510;11.378;2024-02-04T08:10:20;265.80;;;241.80;;
9479;SDS011;4778;44.510;11.378;2024-02-04T08:12:46;230.00;;;210.20;;
9479;SDS011;4778;44.510;11.378;2024-02-04T08:15:15;224.53;;;205.03;;
9479;SDS011;4778;44.510;11.378;2024-02-04T08:17:42;226.27;;;207.02;;
9479;SDS011;4778;44.510;11.378;2024-02-04T08:20:08;233.35;;;213.18;;
9479;SDS011;4778;44.510;11.378;2024-02-04T08:22:35;214.10;;;195.77;;
9479;SDS011;4778;44.510;11.378;2024-02-04T08:25:01;213.30;;;195.00;;
9479;SDS011;4778;44.510;11.378;2024-02-04T08:27:27;214.83;;;196.13;;
9479;SDS011;4778;44.510;11.378;2024-02-04T08:29:53;259.17;;;235.05;;
9479;SDS011;4778;44.510;11.378;2024-02-04T08:32:20;282.52;;;254.98;;
9479;SDS011;4778;44.510;11.378;2024-02-04T08:34:46;339.90;;;289.65;;
9479;SDS011;4778;44.510;11.378;2024-02-04T08:37:12;341.92;;;290.60;;
9479;SDS011;4778;44.510;11.378;2024-02-04T08:39:38;346.40;;;295.05;;
9479;SDS011;4778;44.510;11.378;2024-02-04T08:42:04;357.00;;;290.80;;
9479;SDS011;4778;44.510;11.378;2024-02-04T08:44:31;366.00;;;289.97;;
9479;SDS011;4778;44.510;11.378;2024-02-04T08:46:57;364.20;;;287.40;;
9479;SDS011;4778;44.510;11.378;2024-02-04T08:49:23;360.93;;;289.13;;
9479;SDS011;4778;44.510;11.378;2024-02-04T08:51:49;370.27;;;293.20;;
9479;SDS011;4778;44.510;11.378;2024-02-04T08:54:15;357.60;;;283.15;;
9479;SDS011;4778;44.510;11.378;2024-02-04T08:56:42;322.40;;;272.77;;
9479;SDS011;4778;44.510;11.378;2024-02-04T08:59:08;321.23;;;269.90;;
9479;SDS011;4778;44.510;11.378;2024-02-04T09:01:34;329.73;;;276.83;;
9479;SDS011;4778;44.510;11.378;2024-02-04T09:04:01;315.40;;;268.60;;
9479;SDS011;4778;44.510;11.378;2024-02-04T09:06:27;316.85;;;271.55;;
9479;SDS011;4778;44.510;11.378;2024-02-04T09:08:53;316.45;;;273.35;;
9479;SDS011;4778;44.510;11.378;2024-02-04T09:11:19;338.70;;;287.70;;
9479;SDS011;4778;44.510;11.378;2024-02-04T09:13:45;340.15;;;280.10;;
9479;SDS011;4778;44.510;11.378;2024-02-04T09:16:12;348.10;;;281.10;;
9479;SDS011;4778;44.510;11.378;2024-02-04T09:18:38;339.80;;;282.05;;
9479;SDS011;4778;44.510;11.378;2024-02-04T09:21:04;341.90;;;280.10;;
9479;SDS011;4778;44.510;11.378;2024-02-04T09:23:30;342.70;;;284.02;;
9479;SDS011;4778;44.510;11.378;2024-02-04T09:25:56;317.37;;;280.17;;
9479;SDS011;4778;44.510;11.378;2024-02-04T09:28:22;331.92;;;286.33;;
9479;SDS011;4778;44.510;11.378;2024-02-04T09:30:48;315.90;;;270.77;;
9479;SDS011;4778;44.510;11.378;2024-02-04T09:33:14;304.10;;;265.80;;
9479;SDS011;4778;44.510;11.378;2024-02-04T09:35:40;305.23;;;266.80;;
9479;SDS011;4778;44.510;11.378;2024-02-04T09:38:07;320.95;;;275.30;;
9479;SDS011;4778;44.510;11.378;2024-02-04T09:40:33;326.95;;;283.45;;
9479;SDS011;4778;44.510;11.378;2024-02-04T09:42:59;330.98;;;279.95;;
9479;SDS011;4778;44.510;11.378;2024-02-04T09:45:26;318.38;;;275.98;;
9479;SDS011;4778;44.510;11.378;2024-02-04T09:47:52;306.42;;;264.83;;
9479;SDS011;4778;44.510;11.378;2024-02-04T09:50:20;322.40;;;280.10;;
9479;SDS011;4778;44.510;11.378;2024-02-04T09:52:49;335.33;;;284.40;;
9479;SDS011;4778;44.510;11.378;2024-02-04T09:55:16;336.67;;;280.25;;
9479;SDS011;4778;44.510;11.378;2024-02-04T09:57:44;344.70;;;281.02;;
9479;SDS011;4778;44.510;11.378;2024-02-04T10:00:10;331.50;;;285.02;;
9479;SDS011;4778;44.510;11.378;2024-02-04T10:02:37;321.40;;;280.70;;
9479;SDS011;4778;44.510;11.378;2024-02-04T10:05:03;312.05;;;263.65;;
9479;SDS011;4778;44.510;11.378;2024-02-04T10:07:30;348.98;;;282.02;;
9479;SDS011;4778;44.510;11.378;2024-02-04T10:09:56;341.10;;;282.70;;
9479;SDS011;4778;44.510;11.378;2024-02-04T10:14:51;353.77;;;281.70;;
9479;SDS011;4778;44.510;11.378;2024-02-04T10:17:17;351.98;;;280.63;;
9479;SDS011;4778;44.510;11.378;2024-02-04T10:19:46;355.70;;;281.88;;
9479;SDS011;4778;44.510;11.378;2024-02-04T10:22:13;351.80;;;282.70;;
9479;SDS011;4778;44.510;11.378;2024-02-04T10:24:43;352.92;;;280.77;;
9479;SDS011;4778;44.510;11.378;2024-02-04T10:27:12;348.02;;;277.27;;
9479;SDS011;4778;44.510;11.378;2024-02-04T10:29:38;373.38;;;286.58;;
9479;SDS011;4778;44.510;11.378;2024-02-04T10:32:04;363.80;;;284.20;;
9479;SDS011;4778;44.510;11.378;2024-02-04T10:34:31;358.13;;;281.48;;
9479;SDS011;4778;44.510;11.378;2024-02-04T10:36:57;362.27;;;283.17;;
9479;SDS011;4778;44.510;11.378;2024-02-04T10:39:23;361.20;;;282.90;;
9479;SDS011;4778;44.510;11.378;2024-02-04T10:41:50;356.00;;;280.60;;
9479;SDS011;4778;44.510;11.378;2024-02-04T10:44:17;356.42;;;283.25;;
9479;SDS011;4778;44.510;11.378;2024-02-04T10:46:45;381.20;;;287.60;;
9479;SDS011;4778;44.510;11.378;2024-02-04T10:49:13;359.03;;;284.60;;
9479;SDS011;4778;44.510;11.378;2024-02-04T10:51:40;358.98;;;282.30;;
9479;SDS011;4778;44.510;11.378;2024-02-04T10:54:07;357.13;;;280.37;;
9479;SDS011;4778;44.510;11.378;2024-02-04T10:59:00;346.70;;;276.50;;
9479;SDS011;4778;44.510;11.378;2024-02-04T11:01:31;364.40;;;285.10;;
9479;SDS011;4778;44.510;11.378;2024-02-04T11:03:57;359.73;;;282.95;;
9479;SDS011;4778;44.510;11.378;2024-02-04T11:06:25;357.57;;;283.77;;
9479;SDS011;4778;44.510;11.378;2024-02-04T11:08:52;367.83;;;283.85;;
9479;SDS011;4778;44.510;11.378;2024-02-04T11:11:19;390.27;;;292.30;;
9479;SDS011;4778;44.510;11.378;2024-02-04T11:13:49;365.55;;;283.20;;
9479;SDS011;4778;44.510;11.378;2024-02-04T11:19:20;359.73;;;276.10;;
9479;SDS011;4778;44.510;11.378;2024-02-04T11:22:07;346.63;;;279.73;;
9479;SDS011;4778;44.510;11.378;2024-02-04T11:27:22;339.90;;;282.60;;
9479;SDS011;4778;44.510;11.378;2024-02-04T11:29:48;355.00;;;281.75;;
9479;SDS011;4778;44.510;11.378;2024-02-04T11:32:14;354.80;;;283.37;;
9479;SDS011;4778;44.510;11.378;2024-02-04T11:34:41;364.80;;;283.40;;
9479;SDS011;4778;44.510;11.378;2024-02-04T11:37:16;348.10;;;288.50;;
9479;SDS011;4778;44.510;11.378;2024-02-04T11:39:49;359.50;;;283.20;;
9479;SDS011;4778;44.510;11.378;2024-02-04T11:42:16;351.75;;;288.70;;
9479;SDS011;4778;44.510;11.378;2024-02-04T11:44:43;329.60;;;276.63;;
9479;SDS011;4778;44.510;11.378;2024-02-04T11:47:09;324.05;;;270.35;;
9479;SDS011;4778;44.510;11.378;2024-02-04T11:49:35;337.03;;;283.37;;
9479;SDS011;4778;44.510;11.378;2024-02-04T11:52:02;326.20;;;272.27;;
9479;SDS011;4778;44.510;11.378;2024-02-04T11:54:28;362.88;;;288.05;;
9479;SDS011;4778;44.510;11.378;2024-02-04T11:56:56;378.35;;;294.20;;
9479;SDS011;4778;44.510;11.378;2024-02-04T11:59:23;372.30;;;296.80;;
9479;SDS011;4778;44.510;11.378;2024-02-04T12:01:49;386.35;;;292.45;;
9479;SDS011;4778;44.510;11.378;2024-02-04T12:04:16;343.90;;;289.88;;
9479;SDS011;4778;44.510;11.378;2024-02-04T12:06:42;362.07;;;280.07;;
9479;SDS011;4778;44.510;11.378;2024-02-04T12:09:09;359.20;;;282.27;;
9479;SDS011;4778;44.510;11.378;2024-02-04T12:11:35;350.40;;;281.73;;
9479;SDS011;4778;44.510;11.378;2024-02-04T12:14:05;348.60;;;285.65;;
9479;SDS011;4778;44.510;11.378;2024-02-04T12:16:32;356.65;;;281.45;;
9479;SDS011;4778;44.510;11.378;2024-02-04T12:19:00;359.30;;;282.75;;
9479;SDS011;4778;44.510;11.378;2024-02-04T12:21:29;369.27;;;284.37;;
9479;SDS011;4778;44.510;11.378;2024-02-04T12:23:55;352.60;;;278.00;;
9479;SDS011;4778;44.510;11.378;2024-02-04T12:26:22;339.70;;;279.20;;
9479;SDS011;4778;44.510;11.378;2024-02-04T12:28:48;323.88;;;271.40;;
9479;SDS011;4778;44.510;11.378;2024-02-04T12:31:19;339.80;;;286.20;;
9479;SDS011;4778;44.510;11.378;2024-02-04T12:33:58;314.20;;;272.77;;
9479;SDS011;4778;44.510;11.378;2024-02-04T12:36:26;333.73;;;282.98;;
9479;SDS011;4778;44.510;11.378;2024-02-04T12:38:56;334.50;;;282.60;;
9479;SDS011;4778;44.510;11.378;2024-02-04T12:41:22;351.20;;;277.35;;
9479;SDS011;4778;44.510;11.378;2024-02-04T12:43:53;362.73;;;281.90;;
9479;SDS011;4778;44.510;11.378;2024-02-04T12:46:19;365.55;;;282.10;;
9479;SDS011;4778;44.510;11.378;2024-02-04T12:48:50;362.40;;;281.30;;
9479;SDS011;4778;44.510;11.378;2024-02-04T12:51:26;346.65;;;283.35;;
9479;SDS011;4778;44.510;11.378;2024-02-04T12:54:06;357.08;;;280.33;;
9479;SDS011;4778;44.510;11.378;2024-02-04T12:56:51;346.80;;;279.30;;
9479;SDS011;4778;44.510;11.378;2024-02-04T12:59:27;330.50;;;276.55;;
9479;SDS011;4778;44.510;11.378;2024-02-04T13:01:55;335.60;;;280.15;;
9479;SDS011;4778;44.510;11.378;2024-02-04T13:04:21;347.20;;;280.00;;
9479;SDS011;4778;44.510;11.378;2024-02-04T13:06:47;337.15;;;278.88;;
9479;SDS011;4778;44.510;11.378;2024-02-04T13:09:14;339.65;;;277.80;;
9479;SDS011;4778;44.510;11.378;2024-02-04T13:11:41;344.15;;;278.00;;
9479;SDS011;4778;44.510;11.378;2024-02-04T13:14:07;347.60;;;280.40;;
9479;SDS011;4778;44.510;11.378;2024-02-04T13:16:34;373.45;;;286.13;;
9479;SDS011;4778;44.510;11.378;2024-02-04T13:19:04;342.65;;;279.40;;
9479;SDS011;4778;44.510;11.378;2024-02-04T13:21:30;335.70;;;275.20;;
9479;SDS011;4778;44.510;11.378;2024-02-04T13:23:56;323.17;;;277.90;;
9479;SDS011;4778;44.510;11.378;2024-02-04T13:26:22;326.02;;;285.83;;
9479;SDS011;4778;44.510;11.378;2024-02-04T13:28:48;309.03;;;275.33;;
9479;SDS011;4778;44.510;11.378;2024-02-04T13:31:14;315.20;;;269.40;;
9479;SDS011;4778;44.510;11.378;2024-02-04T13:33:41;323.30;;;273.30;;
9479;SDS011;4778;44.510;11.378;2024-02-04T13:36:07;319.73;;;276.15;;
9479;SDS011;4778;44.510;11.378;2024-02-04T13:38:34;305.95;;;268.95;;
9479;SDS011;4778;44.510;11.378;2024-02-04T13:41:00;326.92;;;273.73;;
9479;SDS011;4778;44.510;11.378;2024-02-04T13:43:26;328.55;;;274.55;;
9479;SDS011;4778;44.510;11.378;2024-02-04T13:45:53;327.87;;;278.90;;
9479;SDS011;4778;44.510;11.378;2024-02-04T13:48:19;320.40;;;272.17;;
9479;SDS011;4778;44.510;11.378;2024-02-04T13:50:47;329.80;;;276.83;;
9479;SDS011;4778;44.510;11.378;2024-02-04T13:53:13;299.20;;;265.40;;
9479;SDS011;4778;44.510;11.378;2024-02-04T13:55:39;321.93;;;273.87;;
9479;SDS011;4778;44.510;11.378;2024-02-04T13:58:05;315.10;;;271.83;;
9479;SDS011;4778;44.510;11.378;2024-02-04T14:00:32;313.03;;;271.93;;
9479;SDS011;4778;44.510;11.378;2024-02-04T14:02:58;317.60;;;272.30;;
9479;SDS011;4778;44.510;11.378;2024-02-04T14:05:24;309.40;;;275.27;;
9479;SDS011;4778;44.510;11.378;2024-02-04T14:07:50;316.00;;;273.70;;
9479;SDS011;4778;44.510;11.378;2024-02-04T14:10:17;325.13;;;274.67;;
9479;SDS011;4778;44.510;11.378;2024-02-04T14:12:43;321.27;;;272.30;;
9479;SDS011;4778;44.510;11.378;2024-02-04T14:15:10;300.65;;;267.70;;
9479;SDS011;4778;44.510;11.378;2024-02-04T14:17:37;294.77;;;263.97;;
9479;SDS011;4778;44.510;11.378;2024-02-04T14:20:04;285.08;;;255.88;;